createdAt,value
2022-10-11T00:02:03.591Z,20.83
2022-10-11T00:04:32.987Z,15.27
2022-10-11T00:07:04.973Z,18.73
2022-10-11T00:09:38.506Z,15.33
2022-10-11T00:12:16.848Z,18.87
2022-10-11T00:14:45.466Z,22.03
2022-10-11T00:17:21.896Z,18.23
2022-10-11T00:19:51.282Z,15.20
2022-10-11T00:22:29.837Z,14.67
2022-10-11T00:24:59.922Z,16.33
2022-10-11T00:27:37.058Z,13.03
2022-10-11T00:30:18.597Z,15.63
2022-10-11T00:32:48.359Z,13.93
2022-10-11T00:35:20.677Z,16.60
2022-10-11T00:40:46.076Z,20.70
2022-10-11T00:43:18.876Z,17.10
2022-10-11T00:46:20.135Z,15.63
2022-10-11T00:48:53.437Z,18.50
2022-10-11T00:51:51.598Z,17.53
2022-10-11T00:54:35.005Z,15.70
2022-10-11T00:57:24.897Z,15.77
2022-10-11T00:59:58.241Z,14.07
2022-10-11T01:02:27.562Z,15.60
2022-10-11T01:05:25.105Z,15.80
2022-10-11T01:07:54.216Z,13.80
2022-10-11T01:10:31.348Z,15.27
2022-10-11T01:13:31.171Z,16.20
2022-10-11T01:16:17.982Z,14.67
2022-10-11T01:19:27.216Z,14.17
2022-10-11T01:23:06.482Z,14.80
2022-10-11T01:26:12.312Z,14.10
2022-10-11T01:28:49.654Z,16.97
2022-10-11T01:31:24.734Z,13.67
2022-10-11T01:34:00.022Z,14.87
2022-10-11T01:37:06.092Z,15.97
2022-10-11T01:40:01.681Z,12.97
2022-10-11T01:42:30.502Z,15.33
2022-10-11T01:44:59.124Z,16.87
2022-10-11T01:47:27.361Z,23.17
2022-10-11T01:50:02.118Z,14.80
2022-10-11T01:52:34.501Z,12.77
2022-10-11T01:55:10.828Z,14.20
2022-10-11T01:57:50.448Z,13.10
2022-10-11T02:00:24.960Z,17.87
2022-10-11T02:03:20.058Z,14.77
2022-10-11T02:05:55.582Z,15.03
2022-10-11T02:08:34.926Z,14.07
2022-10-11T02:11:27.697Z,15.93
2022-10-11T02:14:04.933Z,13.83
2022-10-11T02:16:47.741Z,13.47
2022-10-11T02:19:18.801Z,19.50
2022-10-11T02:21:50.377Z,13.83
2022-10-11T02:24:30.546Z,13.03
2022-10-11T02:26:59.776Z,11.20
2022-10-11T02:29:30.181Z,12.00
2022-10-11T02:31:59.607Z,15.47
2022-10-11T02:34:32.176Z,15.07
2022-10-11T02:37:22.967Z,19.20
2022-10-11T02:40:19.137Z,14.73
2022-10-11T02:42:51.601Z,14.13
2022-10-11T02:45:41.922Z,13.30
2022-10-11T02:48:11.497Z,13.97
2022-10-11T02:50:40.906Z,16.23
2022-10-11T02:53:08.857Z,15.77
2022-10-11T02:55:36.428Z,13.93
2022-10-11T02:58:03.867Z,14.67
2022-10-11T03:00:31.190Z,17.57
2022-10-11T03:02:58.319Z,17.57
2022-10-11T03:08:13.419Z,16.30
2022-10-11T03:10:41.216Z,16.50
2022-10-11T03:13:08.697Z,16.47
2022-10-11T03:15:35.706Z,15.97
2022-10-11T03:18:02.807Z,14.93
2022-10-11T03:20:29.916Z,15.57
2022-10-11T03:22:57.116Z,15.87
2022-10-11T03:25:24.136Z,17.73
2022-10-11T03:27:51.341Z,16.87
2022-10-11T03:30:18.629Z,20.93
2022-10-11T03:32:46.187Z,17.37
2022-10-11T03:35:13.286Z,16.73
2022-10-11T03:37:40.271Z,17.40
2022-10-11T03:40:08.892Z,17.30
2022-10-11T03:42:36.315Z,16.47
2022-10-11T03:45:08.122Z,17.00
2022-10-11T03:47:36.076Z,17.50
2022-10-11T03:50:04.107Z,14.57
2022-10-11T03:52:31.436Z,11.47
2022-10-11T03:54:59.107Z,13.70
2022-10-11T03:57:26.342Z,13.37
2022-10-11T03:59:53.342Z,18.67
2022-10-11T04:02:21.557Z,17.30
2022-10-11T04:04:48.857Z,14.63
2022-10-11T04:07:15.942Z,16.33
2022-10-11T04:09:43.156Z,18.13
2022-10-11T04:12:10.291Z,15.37
2022-10-11T04:14:37.251Z,15.07
2022-10-11T04:17:04.272Z,15.53
2022-10-11T04:19:31.316Z,16.70
2022-10-11T04:21:58.494Z,17.43
2022-10-11T04:24:25.459Z,14.60
2022-10-11T04:26:52.536Z,16.13
2022-10-11T04:29:19.541Z,15.23
2022-10-11T04:31:46.617Z,15.33
2022-10-11T04:34:13.622Z,15.00
2022-10-11T04:36:40.677Z,17.90
2022-10-11T04:39:08.600Z,14.77
2022-10-11T04:41:36.737Z,17.20
2022-10-11T04:44:03.878Z,12.83
2022-10-11T04:46:31.279Z,14.23
2022-10-11T04:48:59.652Z,16.80
2022-10-11T04:51:27.840Z,13.03
2022-10-11T04:53:55.195Z,13.60
2022-10-11T04:56:22.242Z,18.03
2022-10-11T04:58:49.785Z,13.07
2022-10-11T05:01:16.894Z,17.00
2022-10-11T05:03:44.020Z,14.00
2022-10-11T05:06:11.411Z,18.30
2022-10-11T05:08:38.959Z,14.70
2022-10-11T05:11:15.599Z,16.30
2022-10-11T05:13:45.201Z,14.00
2022-10-11T05:16:13.038Z,13.13
2022-10-11T05:18:41.003Z,15.40
2022-10-11T05:21:15.282Z,14.47
2022-10-11T05:23:42.494Z,15.80
2022-10-11T05:26:09.890Z,17.50
2022-10-11T05:28:37.282Z,13.60
2022-10-11T05:31:04.822Z,14.37
2022-10-11T05:33:32.344Z,13.37
2022-10-11T05:35:59.499Z,16.23
2022-10-11T05:38:26.823Z,16.90
2022-10-11T05:40:54.901Z,13.37
2022-10-11T05:43:22.142Z,17.33
2022-10-11T05:45:49.987Z,19.40
2022-10-11T05:48:17.177Z,15.33
2022-10-11T05:50:44.342Z,13.07
2022-10-11T05:53:11.379Z,17.70
2022-10-11T05:55:40.077Z,14.43
2022-10-11T05:58:08.184Z,14.73
2022-10-11T06:00:38.341Z,13.37
2022-10-11T06:03:07.137Z,15.90
2022-10-11T06:08:19.902Z,14.27
2022-10-11T06:10:46.902Z,14.93
2022-10-11T06:13:14.081Z,15.70
2022-10-11T06:15:41.097Z,14.10
2022-10-11T06:18:08.497Z,13.70
2022-10-11T06:20:35.791Z,15.47
2022-10-11T06:23:03.724Z,14.97
2022-10-11T06:25:30.868Z,15.17
2022-10-11T06:27:57.927Z,15.80
2022-10-11T06:30:25.104Z,15.33
2022-10-11T06:32:52.241Z,14.77
2022-10-11T06:35:19.547Z,14.57
2022-10-11T06:37:46.586Z,15.53
2022-10-11T06:40:14.100Z,14.30
2022-10-11T06:42:41.142Z,16.70
2022-10-11T06:45:08.581Z,12.53
2022-10-11T06:47:35.697Z,12.97
2022-10-11T06:50:02.869Z,15.20
2022-10-11T06:52:29.900Z,14.10
2022-10-11T06:54:57.255Z,12.83
2022-10-11T06:57:24.295Z,16.47
2022-10-11T06:59:51.417Z,12.37
2022-10-11T07:02:18.536Z,14.80
2022-10-11T07:04:45.628Z,12.20
2022-10-11T07:07:15.890Z,14.27
2022-10-11T07:09:42.962Z,16.77
2022-10-11T07:12:10.148Z,15.93
2022-10-11T07:14:37.146Z,12.87
2022-10-11T07:17:04.652Z,13.17
2022-10-11T07:19:31.706Z,13.45
2022-10-11T07:21:58.834Z,11.93
2022-10-11T07:24:25.941Z,12.57
2022-10-11T07:26:52.962Z,11.52
2022-10-11T07:29:20.006Z,10.35
2022-10-11T07:31:47.046Z,9.95
2022-10-11T07:34:14.123Z,9.85
2022-10-11T07:36:41.186Z,8.55
2022-10-11T07:39:09.393Z,9.73
2022-10-11T07:41:39.653Z,9.90
2022-10-11T07:44:09.204Z,13.85
2022-10-11T07:46:36.417Z,14.07
2022-10-11T07:49:03.452Z,13.85
2022-10-11T07:51:34.856Z,11.77
2022-10-11T07:54:07.163Z,11.48
2022-10-11T07:56:45.900Z,12.90
2022-10-11T07:59:14.126Z,12.60
2022-10-11T08:01:42.422Z,10.18
2022-10-11T08:04:13.484Z,17.70
2022-10-11T08:06:42.491Z,12.20
2022-10-11T08:09:09.898Z,12.18
2022-10-11T08:11:39.677Z,10.98
2022-10-11T08:14:14.693Z,13.35
2022-10-11T08:16:44.799Z,11.90
2022-10-11T08:19:21.382Z,11.25
2022-10-11T08:24:33.536Z,10.88
2022-10-11T08:27:14.416Z,12.38
2022-10-11T08:29:50.556Z,13.13
2022-10-11T08:32:18.947Z,12.40
2022-10-11T08:34:57.997Z,12.82
2022-10-11T08:37:31.882Z,15.88
2022-10-11T08:40:03.372Z,13.93
2022-10-11T08:43:03.416Z,10.27
2022-10-11T08:45:46.020Z,12.63
2022-10-11T08:48:36.978Z,10.40
2022-10-11T08:51:42.138Z,12.13
2022-10-11T08:54:28.120Z,12.57
2022-10-11T08:56:57.005Z,11.05
2022-10-11T08:59:52.198Z,11.00
2022-10-11T09:03:09.690Z,9.75
2022-10-11T09:06:13.760Z,9.77
2022-10-11T09:09:14.051Z,11.80
2022-10-11T09:12:17.752Z,14.25
2022-10-11T09:15:22.462Z,15.25
2022-10-11T09:18:38.270Z,9.23
2022-10-11T09:21:52.945Z,13.05
2022-10-11T09:24:50.357Z,13.82
2022-10-11T09:28:03.562Z,10.90
2022-10-11T09:30:52.544Z,11.70
2022-10-11T09:33:51.694Z,10.27
2022-10-11T09:36:27.090Z,7.13
2022-10-11T09:39:31.025Z,8.38
2022-10-11T09:42:13.495Z,9.13
2022-10-11T09:44:56.676Z,9.43
2022-10-11T09:47:28.096Z,12.07
2022-10-11T09:50:12.091Z,9.82
2022-10-11T09:53:00.062Z,7.88
2022-10-11T09:55:53.275Z,8.90
2022-10-11T09:58:41.573Z,9.98
2022-10-11T10:01:25.514Z,9.52
2022-10-11T10:04:21.953Z,11.45
2022-10-11T10:06:56.087Z,8.77
2022-10-11T10:09:31.054Z,12.32
2022-10-11T10:11:58.677Z,9.50
2022-10-11T10:14:31.300Z,10.88
2022-10-11T10:17:20.123Z,13.27
2022-10-11T10:20:09.262Z,9.63
2022-10-11T10:22:46.851Z,10.80
2022-10-11T10:25:32.112Z,11.07
2022-10-11T10:28:18.178Z,13.00
2022-10-11T10:31:11.296Z,10.02
2022-10-11T10:33:53.438Z,10.60
2022-10-11T10:36:29.834Z,9.50
2022-10-11T10:39:27.076Z,11.98
2022-10-11T10:42:02.852Z,12.25
2022-10-11T10:44:32.516Z,9.63
2022-10-11T10:47:39.705Z,13.27
2022-10-11T10:50:18.224Z,10.95
2022-10-11T10:53:33.265Z,8.70
2022-10-11T10:56:45.923Z,9.52
2022-10-11T10:59:34.118Z,9.13
2022-10-11T11:02:40.746Z,10.32
2022-10-11T11:05:47.171Z,8.65
2022-10-11T11:08:52.762Z,9.50
2022-10-11T11:11:47.555Z,11.77
2022-10-11T11:14:33.759Z,9.57
2022-10-11T11:17:39.508Z,11.45
2022-10-11T11:20:44.056Z,10.10
2022-10-11T11:23:30.115Z,8.10
2022-10-11T11:26:26.715Z,11.13
2022-10-11T11:29:33.752Z,11.20
2022-10-11T11:32:19.875Z,9.35
2022-10-11T11:35:04.625Z,8.20
2022-10-11T11:37:45.965Z,5.82
2022-10-11T11:40:18.640Z,5.85
2022-10-11T11:42:58.232Z,9.30
2022-10-11T11:45:55.632Z,5.63
2022-10-11T11:48:32.440Z,9.70
2022-10-11T11:51:43.101Z,7.70
2022-10-11T11:55:03.626Z,8.80
2022-10-11T11:58:09.261Z,10.50
2022-10-11T12:04:20.901Z,9.02
2022-10-11T12:07:17.682Z,8.75
2022-10-11T12:09:54.599Z,7.68
2022-10-11T12:12:39.958Z,9.23
2022-10-11T12:15:29.826Z,8.13
2022-10-11T12:18:06.461Z,7.28
2022-10-11T12:20:44.210Z,9.15
2022-10-11T12:23:29.972Z,6.32
2022-10-11T12:26:33.397Z,6.70
2022-10-11T12:29:35.741Z,8.57
2022-10-11T12:32:06.685Z,10.15
2022-10-11T12:34:46.708Z,7.03
2022-10-11T12:37:33.076Z,6.88
2022-10-11T12:40:01.422Z,7.30
2022-10-11T12:42:39.717Z,8.38
2022-10-11T12:45:21.060Z,6.45
2022-10-11T12:48:35.951Z,10.23
2022-10-11T12:51:53.294Z,7.88
2022-10-11T12:55:01.696Z,7.75
2022-10-11T12:58:02.351Z,10.43
2022-10-11T13:00:34.464Z,5.95
2022-10-11T13:03:49.998Z,9.48
2022-10-11T13:06:57.716Z,5.43
2022-10-11T13:09:43.237Z,8.02
2022-10-11T13:12:27.345Z,9.57
2022-10-11T13:15:04.976Z,10.50
2022-10-11T13:17:41.951Z,6.72
2022-10-11T13:20:30.601Z,6.78
2022-10-11T13:23:08.454Z,8.88
2022-10-11T13:25:40.787Z,8.38
2022-10-11T13:28:10.238Z,11.15
2022-10-11T13:30:44.606Z,10.23
2022-10-11T13:33:37.271Z,9.85
2022-10-11T13:36:16.111Z,10.13
2022-10-11T13:39:11.475Z,10.50
2022-10-11T13:41:40.793Z,8.95
2022-10-11T13:44:09.876Z,8.80
2022-10-11T13:46:41.696Z,8.60
2022-10-11T13:49:45.622Z,8.95
2022-10-11T13:52:22.740Z,7.75
2022-10-11T13:55:17.409Z,8.98
2022-10-11T13:57:48.759Z,9.10
2022-10-11T14:00:37.980Z,8.82
2022-10-11T14:03:23.442Z,10.25
2022-10-11T14:06:21.295Z,12.10
2022-10-11T14:08:58.847Z,7.40
2022-10-11T14:11:40.040Z,10.90
2022-10-11T14:14:40.411Z,9.68
2022-10-11T14:17:18.231Z,10.95
2022-10-11T14:20:33.212Z,7.70
2022-10-11T14:23:02.959Z,10.40
2022-10-11T14:25:31.856Z,8.63
2022-10-11T14:28:02.360Z,9.88
2022-10-11T14:30:32.635Z,11.23
2022-10-11T14:33:02.787Z,9.18
2022-10-11T14:35:32.474Z,8.43
2022-10-11T14:38:03.191Z,10.80
2022-10-11T14:43:58.466Z,11.45
2022-10-11T14:46:30.073Z,9.02
2022-10-11T14:48:59.190Z,8.70
2022-10-11T14:51:32.656Z,8.35
2022-10-11T14:54:03.716Z,11.93
2022-10-11T14:56:32.176Z,11.23
2022-10-11T14:59:02.863Z,8.77
2022-10-11T15:01:32.710Z,11.30
2022-10-11T15:04:11.214Z,8.70
2022-10-11T15:06:47.352Z,9.93
2022-10-11T15:09:20.126Z,6.45
2022-10-11T15:11:57.849Z,12.18
2022-10-11T15:14:26.809Z,8.77
2022-10-11T15:16:57.586Z,11.45
2022-10-11T15:19:28.786Z,10.90
2022-10-11T15:21:55.801Z,7.47
2022-10-11T15:24:25.211Z,7.88
2022-10-11T15:26:53.306Z,11.90
2022-10-11T15:29:25.336Z,7.28
2022-10-11T15:31:55.412Z,8.73
2022-10-11T15:34:24.252Z,8.13
2022-10-11T15:36:52.482Z,7.38
2022-10-11T15:39:40.170Z,8.10
2022-10-11T15:42:10.242Z,8.18
2022-10-11T15:47:23.893Z,7.55
2022-10-11T15:49:52.832Z,10.32
2022-10-11T15:52:21.266Z,7.13
2022-10-11T15:54:49.490Z,10.10
2022-10-11T15:57:27.300Z,10.70
2022-10-11T15:59:55.166Z,6.90
2022-10-11T16:02:23.647Z,9.95
2022-10-11T16:04:59.130Z,12.05
2022-10-11T16:07:30.453Z,7.03
2022-10-11T16:09:58.235Z,9.50
2022-10-11T16:12:35.473Z,8.45
2022-10-11T16:15:04.214Z,9.93
2022-10-11T16:17:42.873Z,8.07
2022-10-11T16:20:16.185Z,8.43
2022-10-11T16:22:52.281Z,8.32
2022-10-11T16:25:21.602Z,7.35
2022-10-11T16:27:55.169Z,14.82
2022-10-11T16:30:23.960Z,11.63
2022-10-11T16:33:00.516Z,6.95
2022-10-11T16:35:32.658Z,9.52
2022-10-11T16:38:01.891Z,12.38
2022-10-11T16:40:41.089Z,7.68
2022-10-11T16:43:10.226Z,9.90
2022-10-11T16:45:38.854Z,21.55
2022-10-11T16:48:38.430Z,23.83
2022-10-11T16:51:08.716Z,14.88
2022-10-11T16:53:35.971Z,17.00
2022-10-11T16:56:17.010Z,12.48
2022-10-11T16:58:46.086Z,14.40
2022-10-11T17:01:16.353Z,13.05
2022-10-11T17:03:45.871Z,10.32
2022-10-11T17:06:14.154Z,13.55
2022-10-11T17:08:42.781Z,11.82
2022-10-11T17:11:11.800Z,11.45
2022-10-11T17:13:49.247Z,12.13
2022-10-11T17:16:18.574Z,13.25
2022-10-11T17:18:52.042Z,15.77
2022-10-11T17:21:29.850Z,14.23
2022-10-11T17:23:58.370Z,14.60
2022-10-11T17:26:27.938Z,18.23
2022-10-11T17:29:00.890Z,15.65
2022-10-11T17:31:36.139Z,10.90
2022-10-11T17:34:04.770Z,10.98
2022-10-11T17:36:38.430Z,12.25
2022-10-11T17:39:20.046Z,14.47
2022-10-11T17:41:47.992Z,14.27
2022-10-11T17:44:25.125Z,13.93
2022-10-11T17:46:52.750Z,13.48
2022-10-11T17:49:20.396Z,11.00
2022-10-11T17:51:50.941Z,12.68
2022-10-11T17:54:20.866Z,9.87
2022-10-11T17:56:58.510Z,12.23
2022-10-11T17:59:36.340Z,14.60
2022-10-11T18:02:06.415Z,14.77
2022-10-11T18:04:43.391Z,14.43
2022-10-11T18:07:13.521Z,14.20
2022-10-11T18:09:44.871Z,13.73
2022-10-11T18:12:12.330Z,16.20
2022-10-11T18:14:42.352Z,15.88
2022-10-11T18:17:14.918Z,12.07
2022-10-11T18:19:43.780Z,14.57
2022-10-11T18:22:11.266Z,13.87
2022-10-11T18:24:42.156Z,12.13
2022-10-11T18:27:18.692Z,16.17
2022-10-11T18:29:48.570Z,12.40
2022-10-11T18:32:19.010Z,13.37
2022-10-11T18:34:48.865Z,13.70
2022-10-11T18:37:17.355Z,14.93
2022-10-11T18:39:52.426Z,15.17
2022-10-11T18:42:21.574Z,15.70
2022-10-11T18:44:52.002Z,15.52
2022-10-11T18:47:21.951Z,14.13
2022-10-11T18:49:51.491Z,15.73
2022-10-11T18:52:19.987Z,15.25
2022-10-11T18:54:49.516Z,16.52
2022-10-11T18:57:17.896Z,14.52
2022-10-11T18:59:45.095Z,10.60
2022-10-11T19:02:15.846Z,18.65
2022-10-11T19:04:54.395Z,15.70
2022-10-11T19:07:51.025Z,19.13
2022-10-11T19:10:19.689Z,17.20
2022-10-11T19:12:55.560Z,17.07
2022-10-11T19:15:28.579Z,19.53
2022-10-11T19:17:58.525Z,19.88
2022-10-11T19:20:37.710Z,17.98
2022-10-11T19:23:08.652Z,15.20
2022-10-11T19:25:37.482Z,19.23
2022-10-11T19:28:06.007Z,12.07
2022-10-11T19:30:35.328Z,11.40
2022-10-11T19:33:06.970Z,12.73
2022-10-11T19:35:36.890Z,15.07
2022-10-11T19:38:04.351Z,10.80
2022-10-11T19:40:33.796Z,12.73
2022-10-11T19:43:03.257Z,15.83
2022-10-11T19:45:36.481Z,13.05
2022-10-11T19:48:05.150Z,12.20
2022-10-11T19:50:33.881Z,13.73
2022-10-11T19:53:03.630Z,12.20
2022-10-11T19:55:31.007Z,12.10
2022-10-11T19:58:08.266Z,13.13
2022-10-11T20:00:38.944Z,17.40
2022-10-11T20:03:18.920Z,16.50
2022-10-11T20:06:00.850Z,14.27
2022-10-11T20:08:31.637Z,15.77
2022-10-11T20:11:04.085Z,19.70
2022-10-11T20:13:35.320Z,16.60
2022-10-11T20:16:20.025Z,18.88
2022-10-11T20:18:57.450Z,17.20
2022-10-11T20:21:29.965Z,16.87
2022-10-11T20:24:04.712Z,23.45
2022-10-11T20:26:40.046Z,20.25
2022-10-11T20:29:08.387Z,21.63
2022-10-11T20:31:45.012Z,17.08
2022-10-11T20:34:15.701Z,13.38
2022-10-11T20:36:52.055Z,16.60
2022-10-11T20:39:21.945Z,21.00
2022-10-11T20:41:57.805Z,21.02
2022-10-11T20:44:35.920Z,17.33
2022-10-11T20:47:18.425Z,17.10
2022-10-11T20:49:47.688Z,15.38
2022-10-11T20:52:16.135Z,18.02
2022-10-11T20:54:44.191Z,19.08
2022-10-11T20:57:15.246Z,17.55
2022-10-11T20:59:44.525Z,18.80
2022-10-11T21:02:16.659Z,18.50
2022-10-11T21:07:35.778Z,15.73
2022-10-11T21:10:08.971Z,15.83
2022-10-11T21:12:38.546Z,17.77
2022-10-11T21:15:09.920Z,15.83
2022-10-11T21:17:38.866Z,18.03
2022-10-11T21:20:10.298Z,16.35
2022-10-11T21:22:39.826Z,13.25
2022-10-11T21:25:16.896Z,13.20
2022-10-11T21:27:47.476Z,13.07
2022-10-11T21:30:18.252Z,18.37
2022-10-11T21:32:45.271Z,15.47
2022-10-11T21:35:15.816Z,18.00
2022-10-11T21:37:44.973Z,21.27
2022-10-11T21:40:16.275Z,11.03
2022-10-11T21:42:45.490Z,11.63
2022-10-11T21:45:13.870Z,11.10
2022-10-11T21:47:44.525Z,11.47
2022-10-11T21:50:17.785Z,11.80
2022-10-11T21:52:44.950Z,14.33
2022-10-11T21:55:14.871Z,17.90
2022-10-11T21:57:45.530Z,18.87
2022-10-11T22:00:15.386Z,19.27
2022-10-11T22:02:45.844Z,18.13
2022-10-11T22:08:10.360Z,22.37
2022-10-11T22:10:39.046Z,23.37
2022-10-11T22:13:08.316Z,21.83
2022-10-11T22:15:37.974Z,24.80
2022-10-11T22:18:08.969Z,23.33
2022-10-11T22:20:39.013Z,14.53
2022-10-11T22:23:17.665Z,17.20
2022-10-11T22:25:47.107Z,20.30
2022-10-11T22:28:20.553Z,27.77
2022-10-11T22:30:52.230Z,38.40
2022-10-11T22:33:31.436Z,45.23
2022-10-11T22:36:09.449Z,44.67
2022-10-11T22:38:39.990Z,51.23
2022-10-11T22:41:13.401Z,57.10
2022-10-11T22:43:50.949Z,41.97
2022-10-11T22:46:20.609Z,34.37
2022-10-11T22:48:51.438Z,38.83
2022-10-11T22:51:20.066Z,45.80
2022-10-11T22:53:58.836Z,38.60
2022-10-11T22:56:26.906Z,54.07
2022-10-11T22:58:57.800Z,39.50
2022-10-11T23:01:28.841Z,63.90
2022-10-11T23:03:57.795Z,61.03
2022-10-11T23:06:26.295Z,39.97
2022-10-11T23:09:03.355Z,39.93
2022-10-11T23:11:34.039Z,34.40
2022-10-11T23:14:07.729Z,54.37
2022-10-11T23:16:45.350Z,50.10
2022-10-11T23:19:14.590Z,53.33
2022-10-11T23:21:44.800Z,42.90
2022-10-11T23:24:15.365Z,39.80
2022-10-11T23:26:44.237Z,28.40
2022-10-11T23:29:15.111Z,29.83
2022-10-11T23:31:50.688Z,51.70
2022-10-11T23:34:27.471Z,41.20
2022-10-11T23:36:58.734Z,29.43
2022-10-11T23:39:28.596Z,43.47
2022-10-11T23:42:04.689Z,32.97
2022-10-11T23:44:33.515Z,43.43
2022-10-11T23:47:05.200Z,40.83
2022-10-11T23:49:35.912Z,36.60
2022-10-11T23:52:05.811Z,35.20
2022-10-11T23:54:36.860Z,38.07
2022-10-11T23:57:09.471Z,41.73
2022-10-11T23:59:41.445Z,38.00
